Michel A — TCQX8 — position and weather

sailwx.info

Track history (hours):
 
Tides and Currents Weather Stations Pressure Air Temp Water Temp Dewpoint Dewpoint Depression Visibility Wind Speed Wind Dir Waves Ship Positions

Michel A

Last reported at 2018-Jun-20 06:12 UTC. Time now 2018-Jun-22 11:31 UTC.
Position N 36°30' E 014°14'.

Length 184 m; draft 7.8 m.

Type: Cargo ship. MMSI: 271001050.

Date/timePositionNaut miles runAvg speedWind from/ knotsBaromVisibWave heightAir tempDewpointWater temp
2018-Jun-20 06:12N 36°30' E 014°14'210.8
2018-Jun-20 06:00N 36°30' E 014°17'511.3
2018-Jun-20 05:31N 36°29' E 014°23'1011.6
2018-Jun-20 04:41N 36°26' E 014°35'  
2018-Jun-15 16:24N 40°57' E 028°41'31 3.5
2018-Jun-15 07:36N 41°19' E 029°09'10011.5
2018-Jun-14 22:51N 42°59' E 028°56'511.8
2018-Jun-14 22:25N 43°04' E 028°55'611.8
2018-Jun-14 21:55N 43°10' E 028°54'611.8
2018-Jun-14 21:25N 43°16' E 028°54'511.8
2018-Jun-14 21:00N 43°21' E 028°53'611.8
2018-Jun-14 20:30N 43°27' E 028°52'611.6
2018-Jun-14 20:00N 43°32' E 028°52'611.2
2018-Jun-14 19:27N 43°39' E 028°51'817.5
2018-Jun-14 19:01N 43°46' E 028°50'1326.5
2018-Jun-14 18:30N 43°60' E 028°48'1221.2
2018-Jun-14 17:58N 44°09' E 028°39'0 0.0
2018-Jun-14 15:45N 44°09' E 028°39'0 0.0
2018-Jun-14 15:30N 44°09' E 028°39'0 0.0
2018-Jun-14 14:57N 44°09' E 028°39'0 0.0
2018-Jun-14 14:19N 44°09' E 028°39'0 0.0
2018-Jun-14 14:00N 44°09' E 028°39'0 0.0
2018-Jun-14 13:17N 44°09' E 028°39'0 0.0
2018-Jun-14 13:00N 44°09' E 028°39'0 0.0
2018-Jun-14 12:30N 44°09' E 028°39'0 0.0
2018-Jun-14 11:57N 44°09' E 028°39'0 0.0
2018-Jun-14 11:30N 44°09' E 028°39'0 0.0
2018-Jun-14 10:59N 44°09' E 028°39'0 0.0
2018-Jun-14 10:29N 44°09' E 028°39'0 0.0
2018-Jun-14 09:59N 44°09' E 028°39'0 0.0
2018-Jun-14 09:29N 44°09' E 028°39'0 0.0
2018-Jun-14 08:59N 44°09' E 028°39'0 0.0
2018-Jun-14 08:28N 44°09' E 028°39'0 0.0
2018-Jun-14 07:58N 44°09' E 028°39'0 0.0
2018-Jun-14 07:28N 44°09' E 028°39'0 0.0
2018-Jun-14 06:58N 44°09' E 028°39'0 0.0
2018-Jun-14 06:31N 44°09' E 028°39'0 0.0
2018-Jun-14 06:00N 44°09' E 028°39'0 0.0
2018-Jun-14 05:30N 44°09' E 028°39'0 0.0
2018-Jun-14 04:57N 44°09' E 028°39'0 0.0
2018-Jun-14 04:27N 44°09' E 028°39'0 0.0
2018-Jun-14 03:59N 44°09' E 028°39'0 0.0
2018-Jun-14 03:29N 44°09' E 028°39'0 0.0
2018-Jun-14 02:59N 44°09' E 028°39'0 0.0
2018-Jun-14 02:29N 44°09' E 028°39'0 0.0
2018-Jun-14 01:56N 44°09' E 028°39'0 0.0
2018-Jun-14 01:28N 44°09' E 028°39'0 0.0
2018-Jun-14 00:58N 44°09' E 028°39'0 0.0
2018-Jun-14 00:28N 44°09' E 028°39'0 0.0
2018-Jun-13 23:58N 44°09' E 028°39'1 1.2
2018-Jun-13 23:30N 44°09' E 028°39'2 4.8
2018-Jun-13 23:00N 44°07' E 028°41'3 6.1
2018-Jun-13 22:30N 44°05' E 028°44'4 8.6
2018-Jun-13 22:00N 44°02' E 028°48'714.9
2018-Jun-13 21:30N 43°54' E 028°50'815.2
2018-Jun-13 21:00N 43°47' E 028°51'715.1
2018-Jun-13 20:30N 43°39' E 028°52'815.2
2018-Jun-13 20:00N 43°32' E 028°53'715.2
2018-Jun-13 19:31N 43°24' E 028°54'915.1
2018-Jun-13 18:55N 43°15' E 028°55'615.2
2018-Jun-13 18:30N 43°09' E 028°57'815.1
2018-Jun-13 18:00N 43°02' E 028°58'714.9
2018-Jun-13 17:30N 42°54' E 028°59'714.9
2018-Jun-13 17:01N 42°47' E 029°00'915.2
2018-Jun-13 16:25N 42°38' E 029°01'615.3
2018-Jun-13 16:01N 42°32' E 029°02'815.4
2018-Jun-13 15:30N 42°24' E 029°04'915.5
2018-Jun-13 14:54N 42°15' E 029°05'615.2
2018-Jun-13 14:30N 42°09' E 029°06'815.1
2018-Jun-13 14:00N 42°01' E 029°07'815.3
2018-Jun-13 13:30N 41°54' E 029°08'815.2
2018-Jun-13 12:59N 41°46' E 029°09'715.1
2018-Jun-13 12:31N 41°39' E 029°10'1015.3
2018-Jun-13 11:51N 41°29' E 029°12'615.4
2018-Jun-13 11:29N 41°23' E 029°12'914.6
2018-Jun-13 10:51N 41°14' E 029°09'1310.4
2018-Jun-13 09:36N 41°02' E 029°01'210.7
2018-Jun-13 09:26N 41°01' E 028°60'29 7.7
2018-Jun-13 05:44N 40°49' E 028°26'5 8.8
2018-Jun-13 05:11N 40°48' E 028°20'212.4
2018-Jun-13 04:59N 40°48' E 028°16'714.8
2018-Jun-13 04:30N 40°47' E 028°07'815.1
2018-Jun-13 04:00N 40°46' E 027°57'715.0
2018-Jun-13 03:30N 40°45' E 027°47'5015.2
2018-Jun-13 00:13N 40°26' E 026°46'3411.1
2018-Jun-12 21:09N 40°02' E 026°15'214.3
2018-Jun-12 21:00N 40°01' E 026°12'611.8
2018-Jun-12 20:29N 39°60' E 026°04'612.7
2018-Jun-12 20:00N 39°56' E 025°58'19514.9
2018-Jun-12 06:54N 37°06' E 023°54'  
Track history (hours):
 
Tides and Currents Weather Stations Pressure Air Temp Water Temp Dewpoint Dewpoint Depression Visibility Wind Speed Wind Dir Waves Ship Positions

Michel A

Last reported at 2018-Jun-20 06:12 UTC. Time now 2018-Jun-22 11:31 UTC.
Position N 36°30' E 014°14'.

Length 184 m; draft 7.8 m.

Type: Cargo ship. MMSI: 271001050.

Date/timePositionNaut miles runAvg speedWind from/ knotsBaromVisibWave heightAir tempDewpointWater temp
2018-Jun-20 06:12N 36°30' E 014°14'210.8
2018-Jun-20 06:00N 36°30' E 014°17'511.3
2018-Jun-20 05:31N 36°29' E 014°23'1011.6
2018-Jun-20 04:41N 36°26' E 014°35'  
2018-Jun-15 16:24N 40°57' E 028°41'31 3.5
2018-Jun-15 07:36N 41°19' E 029°09'10011.5
2018-Jun-14 22:51N 42°59' E 028°56'511.8
2018-Jun-14 22:25N 43°04' E 028°55'611.8
2018-Jun-14 21:55N 43°10' E 028°54'611.8
2018-Jun-14 21:25N 43°16' E 028°54'511.8
2018-Jun-14 21:00N 43°21' E 028°53'611.8
2018-Jun-14 20:30N 43°27' E 028°52'611.6
2018-Jun-14 20:00N 43°32' E 028°52'611.2
2018-Jun-14 19:27N 43°39' E 028°51'817.5
2018-Jun-14 19:01N 43°46' E 028°50'1326.5
2018-Jun-14 18:30N 43°60' E 028°48'1221.2
2018-Jun-14 17:58N 44°09' E 028°39'0 0.0
2018-Jun-14 15:45N 44°09' E 028°39'0 0.0
2018-Jun-14 15:30N 44°09' E 028°39'0 0.0
2018-Jun-14 14:57N 44°09' E 028°39'0 0.0
2018-Jun-14 14:19N 44°09' E 028°39'0 0.0
2018-Jun-14 14:00N 44°09' E 028°39'0 0.0
2018-Jun-14 13:17N 44°09' E 028°39'0 0.0
2018-Jun-14 13:00N 44°09' E 028°39'0 0.0
2018-Jun-14 12:30N 44°09' E 028°39'0 0.0
2018-Jun-14 11:57N 44°09' E 028°39'0 0.0
2018-Jun-14 11:30N 44°09' E 028°39'0 0.0
2018-Jun-14 10:59N 44°09' E 028°39'0 0.0
2018-Jun-14 10:29N 44°09' E 028°39'0 0.0
2018-Jun-14 09:59N 44°09' E 028°39'0 0.0
2018-Jun-14 09:29N 44°09' E 028°39'0 0.0
2018-Jun-14 08:59N 44°09' E 028°39'0 0.0
2018-Jun-14 08:28N 44°09' E 028°39'0 0.0
2018-Jun-14 07:58N 44°09' E 028°39'0 0.0
2018-Jun-14 07:28N 44°09' E 028°39'0 0.0
2018-Jun-14 06:58N 44°09' E 028°39'0 0.0
2018-Jun-14 06:31N 44°09' E 028°39'0 0.0
2018-Jun-14 06:00N 44°09' E 028°39'0 0.0
2018-Jun-14 05:30N 44°09' E 028°39'0 0.0
2018-Jun-14 04:57N 44°09' E 028°39'0 0.0
2018-Jun-14 04:27N 44°09' E 028°39'0 0.0
2018-Jun-14 03:59N 44°09' E 028°39'0 0.0
2018-Jun-14 03:29N 44°09' E 028°39'0 0.0
2018-Jun-14 02:59N 44°09' E 028°39'0 0.0
2018-Jun-14 02:29N 44°09' E 028°39'0 0.0
2018-Jun-14 01:56N 44°09' E 028°39'0 0.0
2018-Jun-14 01:28N 44°09' E 028°39'0 0.0
2018-Jun-14 00:58N 44°09' E 028°39'0 0.0
2018-Jun-14 00:28N 44°09' E 028°39'0 0.0
2018-Jun-13 23:58N 44°09' E 028°39'1 1.2
2018-Jun-13 23:30N 44°09' E 028°39'2 4.8
2018-Jun-13 23:00N 44°07' E 028°41'3 6.1
2018-Jun-13 22:30N 44°05' E 028°44'4 8.6
2018-Jun-13 22:00N 44°02' E 028°48'714.9
2018-Jun-13 21:30N 43°54' E 028°50'815.2
2018-Jun-13 21:00N 43°47' E 028°51'715.1
2018-Jun-13 20:30N 43°39' E 028°52'815.2
2018-Jun-13 20:00N 43°32' E 028°53'715.2
2018-Jun-13 19:31N 43°24' E 028°54'915.1
2018-Jun-13 18:55N 43°15' E 028°55'615.2
2018-Jun-13 18:30N 43°09' E 028°57'815.1
2018-Jun-13 18:00N 43°02' E 028°58'714.9
2018-Jun-13 17:30N 42°54' E 028°59'714.9
2018-Jun-13 17:01N 42°47' E 029°00'915.2
2018-Jun-13 16:25N 42°38' E 029°01'615.3
2018-Jun-13 16:01N 42°32' E 029°02'815.4
2018-Jun-13 15:30N 42°24' E 029°04'915.5
2018-Jun-13 14:54N 42°15' E 029°05'615.2
2018-Jun-13 14:30N 42°09' E 029°06'815.1
2018-Jun-13 14:00N 42°01' E 029°07'815.3
2018-Jun-13 13:30N 41°54' E 029°08'815.2
2018-Jun-13 12:59N 41°46' E 029°09'715.1
2018-Jun-13 12:31N 41°39' E 029°10'1015.3
2018-Jun-13 11:51N 41°29' E 029°12'615.4
2018-Jun-13 11:29N 41°23' E 029°12'914.6
2018-Jun-13 10:51N 41°14' E 029°09'1310.4
2018-Jun-13 09:36N 41°02' E 029°01'210.7
2018-Jun-13 09:26N 41°01' E 028°60'29 7.7
2018-Jun-13 05:44N 40°49' E 028°26'5 8.8
2018-Jun-13 05:11N 40°48' E 028°20'212.4
2018-Jun-13 04:59N 40°48' E 028°16'714.8
2018-Jun-13 04:30N 40°47' E 028°07'815.1
2018-Jun-13 04:00N 40°46' E 027°57'715.0
2018-Jun-13 03:30N 40°45' E 027°47'5015.2
2018-Jun-13 00:13N 40°26' E 026°46'3411.1
2018-Jun-12 21:09N 40°02' E 026°15'214.3
2018-Jun-12 21:00N 40°01' E 026°12'611.8
2018-Jun-12 20:29N 39°60' E 026°04'612.7
2018-Jun-12 20:00N 39°56' E 025°58'19514.9
2018-Jun-12 06:54N 37°06' E 023°54'  

Dump ship's entire track history